createdAt,value
2023-05-10T00:09:49.572Z,1010.34
2023-05-10T00:19:56.342Z,1010.29
2023-05-10T00:30:02.691Z,1010.13
2023-05-10T00:40:09.589Z,1010.02
2023-05-10T00:50:17.141Z,1009.96
2023-05-10T01:00:24.561Z,1009.96
2023-05-10T01:10:32.280Z,1009.84
2023-05-10T01:20:38.832Z,1009.78
2023-05-10T01:30:45.919Z,1009.73
2023-05-10T01:40:53.222Z,1009.71
2023-05-10T01:51:00.323Z,1009.65
2023-05-10T02:01:07.984Z,1009.58
2023-05-10T02:11:15.324Z,1009.61
2023-05-10T02:21:22.331Z,1009.62
2023-05-10T02:31:29.191Z,1009.51
2023-05-10T02:41:36.468Z,1009.52
2023-05-10T02:51:43.266Z,1009.50
2023-05-10T03:01:50.407Z,1009.50
2023-05-10T03:11:57.797Z,1009.53
2023-05-10T03:22:05.020Z,1009.46
2023-05-10T03:32:12.671Z,1009.39
2023-05-10T03:42:19.730Z,1009.44
2023-05-10T03:52:26.759Z,1009.37
2023-05-10T04:02:33.596Z,1009.34
2023-05-10T04:12:40.797Z,1009.28
2023-05-10T04:22:47.875Z,1009.26
2023-05-10T04:32:54.537Z,1009.24
2023-05-10T04:43:01.640Z,1009.14
2023-05-10T04:53:08.938Z,1009.08
2023-05-10T05:03:15.997Z,1009.09
2023-05-10T05:13:22.893Z,1009.18
2023-05-10T05:23:29.660Z,1009.08
2023-05-10T05:33:37.005Z,1008.96
2023-05-10T05:43:44.521Z,1009.04
2023-05-10T05:53:51.006Z,1009.01
2023-05-10T06:03:58.359Z,1008.97
2023-05-10T06:14:05.291Z,1009.02
2023-05-10T06:24:12.577Z,1009.02
2023-05-10T06:34:19.650Z,1009.02
2023-05-10T06:44:26.243Z,1009.05
2023-05-10T06:54:33.503Z,1009.03
2023-05-10T07:04:40.470Z,1008.95
2023-05-10T07:14:47.390Z,1008.89
2023-05-10T07:24:55.007Z,1008.79
2023-05-10T07:35:02.631Z,1008.85
2023-05-10T07:45:09.599Z,1008.84
2023-05-10T07:55:18.192Z,1008.92
2023-05-10T08:05:25.539Z,1008.86
2023-05-10T08:15:32.786Z,1008.96
2023-05-10T08:25:39.885Z,1008.90
2023-05-10T08:35:46.940Z,1008.93
2023-05-10T08:45:53.730Z,1008.92
2023-05-10T08:56:00.642Z,1008.94
2023-05-10T09:06:07.692Z,1008.96
2023-05-10T09:26:27.239Z,1009.02
2023-05-10T09:36:33.917Z,1009.02
2023-05-10T09:46:40.297Z,1009.25
2023-05-10T09:56:47.234Z,1009.16
2023-05-10T10:06:54.045Z,1009.21
2023-05-10T10:17:08.108Z,1009.13
2023-05-10T10:27:13.395Z,1009.21
2023-05-10T10:37:20.540Z,1009.12
2023-05-10T10:47:27.559Z,1009.05
2023-05-10T10:57:34.527Z,1008.94
2023-05-10T11:07:41.292Z,1008.99
2023-05-10T11:17:48.576Z,1008.97
2023-05-10T11:27:55.370Z,1008.98
2023-05-10T11:38:03.610Z,1008.93
2023-05-10T11:48:11.046Z,1008.91
2023-05-10T11:58:18.542Z,1008.96
2023-05-10T12:08:25.972Z,1008.84
2023-05-10T12:18:32.630Z,1008.91
2023-05-10T12:28:39.594Z,1009.05
2023-05-10T12:38:46.886Z,1009.04
2023-05-10T12:49:03.265Z,1008.99
2023-05-10T12:59:05.078Z,1009.14
2023-05-10T13:09:12.221Z,1009.03
2023-05-10T13:19:19.194Z,1008.93
2023-05-10T13:29:25.972Z,1008.97
2023-05-10T13:39:33.709Z,1008.84
2023-05-10T13:49:40.288Z,1008.79
2023-05-10T13:59:47.603Z,1008.89
2023-05-10T14:09:54.204Z,1008.97
2023-05-10T14:20:01.672Z,1008.87
2023-05-10T14:30:08.352Z,1008.84
2023-05-10T14:40:15.669Z,1008.77
2023-05-10T14:50:35.993Z,1008.78
2023-05-10T15:00:34.512Z,1008.78
2023-05-10T15:10:41.665Z,1008.83
2023-05-10T15:20:48.514Z,1008.90
2023-05-10T15:30:55.997Z,1008.93
2023-05-10T15:41:04.142Z,1008.85
2023-05-10T15:51:11.159Z,1008.94
2023-05-10T16:01:18.032Z,1009.03
2023-05-10T16:11:25.117Z,1009.24
2023-05-10T16:21:32.306Z,1009.31
2023-05-10T16:31:38.920Z,1009.47
2023-05-10T16:41:45.905Z,1009.52
2023-05-10T16:51:53.363Z,1009.76
2023-05-10T17:02:00.279Z,1009.80
2023-05-10T17:12:07.213Z,1009.91
2023-05-10T17:22:14.480Z,1010.00
2023-05-10T17:32:21.235Z,1010.07
2023-05-10T17:42:28.225Z,1010.18
2023-05-10T17:52:35.246Z,1010.27
2023-05-10T18:02:42.401Z,1010.32
2023-05-10T18:12:49.594Z,1010.43
2023-05-10T18:22:56.465Z,1010.54
2023-05-10T18:33:05.503Z,1010.61
2023-05-10T18:43:12.559Z,1010.66
2023-05-10T18:53:19.603Z,1010.85
2023-05-10T19:03:26.546Z,1010.93
2023-05-10T19:13:33.953Z,1011.11
2023-05-10T19:23:41.000Z,1011.16
2023-05-10T19:33:47.853Z,1011.20
2023-05-10T19:43:54.781Z,1011.31
2023-05-10T19:54:02.123Z,1011.42
2023-05-10T20:04:09.290Z,1011.45
2023-05-10T20:14:15.961Z,1011.59
2023-05-10T20:24:22.842Z,1011.59
2023-05-10T20:34:30.502Z,1011.63
2023-05-10T20:44:37.931Z,1011.65
2023-05-10T20:54:44.845Z,1011.69
2023-05-10T21:04:52.096Z,1011.67
2023-05-10T21:14:58.945Z,1011.72
2023-05-10T21:25:06.615Z,1011.75
2023-05-10T21:35:13.334Z,1011.72
2023-05-10T21:45:20.661Z,1011.75
2023-05-10T21:55:27.297Z,1011.78
2023-05-10T22:05:34.621Z,1011.77
2023-05-10T22:15:41.428Z,1011.86
2023-05-10T22:25:48.227Z,1011.86
2023-05-10T22:35:54.156Z,1011.90
2023-05-10T22:46:00.238Z,1011.93
2023-05-10T22:56:08.022Z,1011.93
2023-05-10T23:06:14.513Z,1011.94
2023-05-10T23:16:21.887Z,1011.93
2023-05-10T23:26:29.081Z,1012.02
2023-05-10T23:36:35.634Z,1012.03
2023-05-10T23:46:42.714Z,1011.98
2023-05-10T23:56:49.157Z,1011.95
